< < Back
Terminal Aerodrome Forecast


Current Version              Previous Versions:   1  2  3  4  5  6  7  8  9  

Terminal Aerodrome Forecast

108
FTUS42 KCHS 042329
TAFCHS
TAF
KCHS 042329Z 0500/0524 20012KT P6SM SCT050 BKN250
     FM050300 21009KT P6SM FEW015 SCT050 WS015/23035KT
     FM050900 22007KT 5SM BR SCT003 OVC007 WS015/24040KT
     FM051500 23015G23KT P6SM SCT035 BKN070=

Latest METAR

211
SAUS80 KWBC 050400 RRB
MTRCHS
METAR KCHS 050356Z 22011KT 10SM SCT070 19/17 A3003 RMK AO2 SLP167
T01940172


USA.gov is the U.S. government's official web portal to all federal, state and local government web resources and services.